Time;durP1;ratioP1;P1;durP2;ratioP2;P2;SDS_P1;SDS_P2;PMS_P1;PMS_P2;Temp;Humidity;BMP_temperature;BMP_pressure;BME280_temperature;BME280_humidity;BME280_pressure;Samples;Min_cycle;Max_cycle;Signal;HPM_P1;HPM_P2
2023/10/26 00:00:31;;;;;;;10.00;3.33;;;409.70;2355.20;;;;;;5051963;28;20387;-59
2023/10/26 00:02:57;;;;;;;9.82;3.65;;;384.90;2329.60;;;;;;5051033;28;20082;-60
2023/10/26 00:05:23;;;;;;;10.88;3.65;;;409.60;2355.20;;;;;;5025059;28;20129;-60
2023/10/26 00:07:49;;;;;;;9.93;2.80;;;409.60;2355.20;;;;;;5042795;28;20432;-61
2023/10/26 00:10:14;;;;;;;13.55;3.92;;;384.90;2329.60;;;;;;5052173;28;20108;-60
2023/10/26 00:12:40;;;;;;;12.00;2.97;;;384.90;2329.60;;;;;;5051672;28;20024;-59
2023/10/26 00:15:06;;;;;;;12.90;3.88;;;384.90;2329.60;;;;;;5051717;28;20013;-60
2023/10/26 00:17:32;;;;;;;8.68;3.50;;;384.90;2329.60;;;;;;5052057;28;20497;-59
2023/10/26 00:19:58;;;;;;;7.07;2.70;;;384.60;2329.60;;;;;;5051411;28;20045;-59
2023/10/26 00:22:24;;;;;;;6.80;3.70;;;384.60;2329.60;;;;;;5051755;28;20032;-61
2023/10/26 00:24:51;;;;;;;11.60;2.95;;;384.50;2329.60;;;;;;5051333;28;20035;-60
2023/10/26 00:27:17;;;;;;;11.60;3.65;;;384.50;2329.60;;;;;;5051328;28;20021;-60
2023/10/26 00:29:43;;;;;;;7.53;2.95;;;384.30;2329.60;;;;;;5051620;28;20060;-61
2023/10/26 00:32:09;;;;;;;9.95;3.55;;;384.50;2329.60;;;;;;5051325;28;20060;-59
2023/10/26 00:34:35;;;;;;;6.82;2.63;;;384.40;2329.60;;;;;;5049656;28;20029;-59
2023/10/26 00:37:01;;;;;;;6.30;2.75;;;410.20;2355.20;;;;;;5033645;28;20032;-62
2023/10/26 00:39:28;;;;;;;9.88;3.03;;;384.40;2329.60;;;;;;5045088;28;20545;-60
2023/10/26 00:41:54;;;;;;;6.97;3.22;;;384.40;2329.60;;;;;;5042538;28;20386;-59
2023/10/26 00:44:23;;;;;;;6.07;2.70;;;384.20;2329.60;;;;;;5050809;28;20052;-61
2023/10/26 00:46:50;;;;;;;10.40;3.78;;;384.00;2329.60;;;;;;5050961;28;20440;-59
2023/10/26 00:49:17;;;;;;;6.43;2.97;;;;;;;;;;5051358;28;20032;-61
2023/10/26 00:51:46;;;;;;;7.68;2.78;;;384.00;2329.60;;;;;;5051332;28;20048;-60
2023/10/26 00:54:13;;;;;;;7.10;3.47;;;384.10;2329.60;;;;;;5051280;28;20078;-59
2023/10/26 00:56:39;;;;;;;7.68;3.15;;;384.00;2329.60;;;;;;5050783;28;20056;-59
2023/10/26 00:59:05;;;;;;;8.02;3.22;;;384.00;2329.60;;;;;;5051396;28;20479;-61
2023/10/26 01:01:32;;;;;;;9.85;2.80;;;384.10;2329.60;;;;;;5051023;28;20086;-60
2023/10/26 01:03:59;;;;;;;5.03;2.78;;;384.10;2329.60;;;;;;5050749;28;20037;-59
2023/10/26 01:06:25;;;;;;;8.38;3.25;;;384.00;2329.60;;;;;;5051081;28;20025;-62
2023/10/26 01:08:51;;;;;;;11.45;3.17;;;384.10;2329.60;;;;;;5031179;28;20197;-60
2023/10/26 01:11:16;;;;;;;7.65;2.85;;;384.10;2329.60;;;;;;5039959;28;20017;-60
2023/10/26 01:13:43;;;;;;;6.38;2.70;;;359.30;2329.60;;;;;;5050320;28;20036;-60
2023/10/26 01:16:09;;;;;;;9.52;2.45;;;384.10;2329.60;;;;;;5050812;28;20031;-59
2023/10/26 01:18:35;;;;;;;15.70;5.35;;;384.10;2329.60;;;;;;5050137;28;20222;-59
2023/10/26 01:21:01;;;;;;;7.78;4.07;;;384.10;2329.60;;;;;;5050648;28;20021;-60
2023/10/26 01:23:26;;;;;;;6.15;4.22;;;384.00;2329.60;;;;;;5050338;28;20513;-60
2023/10/26 01:25:55;;;;;;;10.02;3.47;;;384.00;2329.60;;;;;;5050496;28;20028;-59
2023/10/26 01:28:23;;;;;;;10.15;4.03;;;384.00;2329.60;;;;;;5050072;28;20486;-59
2023/10/26 01:30:48;;;;;;;20.90;10.52;;;384.00;2329.60;;;;;;5050422;28;20029;-59
2023/10/26 01:33:14;;;;;;;6.97;2.80;;;359.30;2329.60;;;;;;5050699;28;20100;-59
2023/10/26 01:35:45;;;;;;;17.33;8.00;;;359.30;2329.60;;;;;;5050382;28;20482;-60
2023/10/26 01:38:11;;;;;;;12.25;4.55;;;384.00;2329.60;;;;;;5049915;28;20055;-60
2023/10/26 01:40:37;;;;;;;9.60;3.13;;;384.10;2329.60;;;;;;5040137;28;20035;-60
2023/10/26 01:43:03;;;;;;;20.60;7.75;;;384.30;2329.60;;;;;;5037394;28;20375;-60
2023/10/26 01:45:29;;;;;;;7.55;4.20;;;384.30;2329.60;;;;;;5049670;28;20025;-61
2023/10/26 01:47:55;;;;;;;9.00;3.08;;;384.40;2329.60;;;;;;5050065;28;20060;-61
2023/10/26 01:50:21;;;;;;;7.82;3.38;;;384.40;2329.60;;;;;;5049975;28;20029;-61
2023/10/26 01:52:46;;;;;;;14.82;7.38;;;384.50;2329.60;;;;;;5050591;28;20058;-60
2023/10/26 01:55:12;;;;;;;10.27;5.38;;;384.50;2329.60;;;;;;5050472;28;20045;-60
2023/10/26 01:57:38;;;;;;;12.05;5.60;;;384.50;2329.60;;;;;;5050046;28;20068;-60
2023/10/26 02:00:04;;;;;;;18.70;10.23;;;384.40;2329.60;;;;;;5049668;28;20067;-61
2023/10/26 02:02:30;;;;;;;9.85;4.97;;;384.40;2329.60;;;;;;5049582;28;20025;-60
2023/10/26 02:04:56;;;;;;;10.15;4.95;;;384.60;2329.60;;;;;;5050148;28;20029;-58
2023/10/26 02:07:21;;;;;;;5.13;3.05;;;384.40;2329.60;;;;;;5049918;28;20024;-60
2023/10/26 02:09:47;;;;;;;6.63;3.08;;;384.20;2329.60;;;;;;5049991;28;20029;-61
2023/10/26 02:12:13;;;;;;;16.60;3.97;;;384.20;2329.60;;;;;;5035098;28;20097;-59
2023/10/26 02:14:39;;;;;;;11.70;3.60;;;384.30;2329.60;;;;;;5024694;28;20115;-60
2023/10/26 02:17:05;;;;;;;10.25;3.00;;;384.50;2329.60;;;;;;5049655;28;20013;-61
2023/10/26 02:19:31;;;;;;;7.40;2.58;;;384.30;2329.60;;;;;;5049397;28;20045;-59
2023/10/26 02:21:56;;;;;;;9.23;3.17;;;384.30;2329.60;;;;;;5049815;28;20031;-61
2023/10/26 02:24:22;;;;;;;8.00;3.75;;;384.40;2329.60;;;;;;5049204;28;20043;-61
2023/10/26 02:26:48;;;;;;;7.18;2.40;;;384.40;2329.60;;;;;;5049378;28;20075;-60
2023/10/26 02:29:15;;;;;;;6.85;2.30;;;384.30;2329.60;;;;;;5049070;28;20051;-61
2023/10/26 02:31:40;;;;;;;6.88;2.78;;;384.50;2329.60;;;;;;5036708;28;20025;-59
2023/10/26 02:34:06;;;;;;;7.00;3.22;;;384.60;2329.60;;;;;;5049409;28;20020;-59
2023/10/26 02:36:32;;;;;;;13.93;4.53;;;384.80;2329.60;;;;;;5049568;28;20021;-59
2023/10/26 02:38:58;;;;;;;13.65;4.20;;;409.60;2355.20;;;;;;5048670;28;20029;-60
2023/10/26 02:41:23;;;;;;;16.90;8.23;;;409.70;2355.20;;;;;;5023210;28;20865;-61
2023/10/26 02:43:49;;;;;;;9.57;5.03;;;409.80;2355.20;;;;;;5049106;28;20040;-61
2023/10/26 02:46:15;;;;;;;6.38;3.30;;;409.90;2355.20;;;;;;5049218;28;20430;-59
2023/10/26 02:48:40;;;;;;;5.45;2.70;;;409.90;2355.20;;;;;;5038416;28;20029;-59
2023/10/26 02:51:06;;;;;;;7.35;3.38;;;409.90;2355.20;;;;;;5035695;28;20021;-59
2023/10/26 02:53:33;;;;;;;6.20;3.22;;;409.90;2355.20;;;;;;5048977;28;20070;-61
2023/10/26 02:55:59;;;;;;;17.15;7.80;;;410.00;2355.20;;;;;;5049351;28;20047;-60
2023/10/26 02:58:25;;;;;;;8.13;3.83;;;384.90;2329.60;;;;;;5049345;28;20107;-60
2023/10/26 03:00:54;;;;;;;11.75;6.15;;;384.70;2329.60;;;;;;5048977;28;20534;-60
2023/10/26 03:03:20;;;;;;;7.47;3.67;;;384.70;2329.60;;;;;;5048674;28;20029;-60
2023/10/26 03:05:46;;;;;;;12.32;4.57;;;384.70;2329.60;;;;;;5049319;28;20036;-61
2023/10/26 03:08:11;;;;;;;13.63;5.60;;;384.80;2329.60;;;;;;5048396;28;20021;-60
2023/10/26 03:10:38;;;;;;;9.75;4.97;;;384.80;2329.60;;;;;;5048763;28;20112;-60
2023/10/26 03:13:04;;;;;;;10.60;4.25;;;384.80;2329.60;;;;;;5049120;28;20079;-60
2023/10/26 03:15:31;;;;;;;7.45;4.00;;;384.80;2329.60;;;;;;5049156;28;20025;-60
2023/10/26 03:17:57;;;;;;;9.13;3.17;;;384.90;2329.60;;;;;;5047269;28;20134;-60
2023/10/26 03:20:23;;;;;;;11.70;5.85;;;384.90;2329.60;;;;;;5028031;28;20511;-60
2023/10/26 03:22:49;;;;;;;7.88;4.18;;;384.80;2329.60;;;;;;5041822;28;20060;-59
2023/10/26 03:25:16;;;;;;;8.32;4.40;;;384.80;2329.60;;;;;;5036926;28;20055;-61
2023/10/26 03:27:42;;;;;;;11.27;4.57;;;384.90;2329.60;;;;;;5035275;28;20486;-61
2023/10/26 03:30:08;;;;;;;11.80;3.60;;;409.60;2355.20;;;;;;5048540;28;20469;-61
2023/10/26 03:32:35;;;;;;;7.22;3.97;;;409.60;2355.20;;;;;;5048866;28;20065;-60
2023/10/26 03:35:01;;;;;;;8.32;3.55;;;409.60;2355.20;;;;;;5040388;28;20021;-62
2023/10/26 03:37:27;;;;;;;6.93;3.40;;;409.60;2355.20;;;;;;5042245;28;20431;-60
2023/10/26 03:39:53;;;;;;;7.43;2.80;;;384.90;2329.60;;;;;;5048798;28;20047;-60
2023/10/26 03:42:19;;;;;;;6.53;3.72;;;384.90;2329.60;;;;;;5048903;28;20056;-60
2023/10/26 03:44:45;;;;;;;7.38;3.20;;;384.90;2329.60;;;;;;5048871;28;20037;-59
2023/10/26 03:47:11;;;;;;;8.23;4.45;;;384.70;2329.60;;;;;;5048085;28;20345;-61
2023/10/26 03:49:37;;;;;;;6.80;3.50;;;384.60;2329.60;;;;;;5048805;28;20029;-60
2023/10/26 03:52:03;;;;;;;7.55;3.42;;;384.60;2329.60;;;;;;5048542;28;20537;-61
2023/10/26 03:54:29;;;;;;;9.93;3.78;;;384.60;2329.60;;;;;;5048179;28;20025;-61
2023/10/26 03:56:55;;;;;;;11.73;3.45;;;384.50;2329.60;;;;;;5045588;28;20379;-59
2023/10/26 03:59:20;;;;;;;5.88;3.35;;;384.40;2329.60;;;;;;5026998;28;20037;-59
2023/10/26 04:01:46;;;;;;;6.97;3.08;;;384.40;2329.60;;;;;;5046125;28;20029;-59
2023/10/26 04:04:12;;;;;;;6.75;3.45;;;384.30;2329.60;;;;;;5052191;28;20052;-61
2023/10/26 04:06:38;;;;;;;10.88;3.67;;;384.40;2329.60;;;;;;5051671;28;20779;-59
2023/10/26 04:09:03;;;;;;;7.32;2.67;;;384.30;2329.60;;;;;;5052322;28;20115;-59
2023/10/26 04:11:29;;;;;;;15.25;4.45;;;384.30;2329.60;;;;;;5051567;28;20024;-59
2023/10/26 04:13:57;;;;;;;8.57;3.58;;;384.20;2329.60;;;;;;5052264;28;20033;-59
2023/10/26 04:16:23;;;;;;;8.50;4.15;;;384.20;2329.60;;;;;;5051687;28;20101;-59
2023/10/26 04:18:49;;;;;;;17.23;5.57;;;384.20;2329.60;;;;;;5051077;28;20048;-59
2023/10/26 04:21:15;;;;;;;10.75;5.10;;;384.00;2329.60;;;;;;5041843;28;20371;-61
2023/10/26 04:23:41;;;;;;;23.45;9.15;;;384.00;2329.60;;;;;;5048147;28;20025;-60
2023/10/26 04:26:08;;;;;;;9.43;5.78;;;359.30;2329.60;;;;;;5051784;28;20029;-61
2023/10/26 04:28:35;;;;;;;35.88;19.50;;;384.00;2329.60;;;;;;5033200;28;20059;-61
2023/10/26 04:31:04;;;;;;;52.75;32.47;;;384.10;2329.60;;;;;;5042667;28;20032;-60
2023/10/26 04:33:30;;;;;;;25.52;9.82;;;384.10;2329.60;;;;;;5041426;28;20113;-59
2023/10/26 04:35:59;;;;;;;6.25;3.35;;;384.30;2329.60;;;;;;5035150;28;20433;-61
2023/10/26 04:38:25;;;;;;;9.48;5.05;;;384.40;2329.60;;;;;;5051743;28;20524;-59
2023/10/26 04:40:51;;;;;;;41.67;23.33;;;384.40;2329.60;;;;;;5051516;28;20029;-63
2023/10/26 04:43:16;;;;;;;54.05;29.25;;;384.40;2329.60;;;;;;5051902;28;20075;-59
2023/10/26 04:45:42;;;;;;;43.63;24.88;;;384.40;2329.60;;;;;;5051491;28;20078;-61
2023/10/26 04:48:08;;;;;;;39.05;21.15;;;384.60;2329.60;;;;;;5050984;28;20102;-60
2023/10/26 04:50:33;;;;;;;13.30;9.90;;;384.70;2329.60;;;;;;5051013;28;20021;-59
2023/10/26 04:53:02;;;;;;;10.55;5.38;;;384.60;2329.60;;;;;;5051580;28;20450;-61
2023/10/26 04:55:30;;;;;;;7.10;4.07;;;384.70;2329.60;;;;;;5042287;28;20022;-61
2023/10/26 04:57:56;;;;;;;15.18;8.38;;;384.90;2329.60;;;;;;5035366;28;20116;-59
2023/10/26 05:00:22;;;;;;;9.15;4.85;;;409.60;2355.20;;;;;;5035704;28;20026;-61
2023/10/26 05:02:48;;;;;;;9.63;3.58;;;409.90;2355.20;;;;;;5051021;28;20521;-60
2023/10/26 05:05:13;;;;;;;9.05;4.75;;;410.10;2355.20;;;;;;5051021;28;20129;-60
2023/10/26 05:07:39;;;;;;;10.07;4.72;;;410.20;2355.20;;;;;;5047199;28;20111;-61
2023/10/26 05:10:05;;;;;;;12.05;4.57;;;410.10;2355.20;;;;;;5050340;28;20033;-62
2023/10/26 05:12:31;;;;;;;7.95;4.95;;;410.00;2355.20;;;;;;5049034;28;20025;-61
2023/10/26 05:14:57;;;;;;;10.77;5.80;;;410.00;2355.20;;;;;;5050083;28;20527;-60
2023/10/26 05:17:23;;;;;;;15.88;10.93;;;410.00;2355.20;;;;;;5050722;28;20029;-61
2023/10/26 05:19:49;;;;;;;8.82;4.75;;;409.90;2355.20;;;;;;5049357;28;20052;-61
2023/10/26 05:22:17;;;;;;;13.82;9.80;;;410.00;2355.20;;;;;;5050567;28;20025;-61
2023/10/26 05:24:44;;;;;;;6.95;3.80;;;410.00;2355.20;;;;;;5050580;28;20111;-61
2023/10/26 05:27:10;;;;;;;8.95;5.25;;;410.30;2355.20;;;;;;5050395;28;20052;-61
2023/10/26 05:29:36;;;;;;;7.15;5.68;;;435.20;2355.20;;;;;;5042639;28;20026;-59
2023/10/26 05:32:02;;;;;;;7.90;5.05;;;435.50;2355.20;;;;;;5028943;28;20425;-61
2023/10/26 05:34:28;;;;;;;8.45;5.88;;;435.70;2355.20;;;;;;5049929;28;20025;-61
2023/10/26 05:36:53;;;;;;;15.63;8.15;;;435.70;2355.20;;;;;;5050131;28;20379;-62
2023/10/26 05:39:19;;;;;;;16.70;7.75;;;435.20;2355.20;;;;;;5050240;28;20261;-60
2023/10/26 05:41:45;;;;;;;13.18;7.80;;;410.30;2355.20;;;;;;5050614;28;20032;-61
2023/10/26 05:44:11;;;;;;;18.55;8.45;;;410.00;2355.20;;;;;;5050266;28;20036;-61
2023/10/26 05:46:36;;;;;;;15.85;6.97;;;410.20;2355.20;;;;;;5050234;28;20527;-61
2023/10/26 05:49:02;;;;;;;10.02;6.85;;;410.20;2355.20;;;;;;5036581;28;20021;-59
2023/10/26 05:51:29;;;;;;;11.15;5.80;;;410.20;2355.20;;;;;;5050248;28;20372;-60
2023/10/26 05:53:55;;;;;;;9.63;4.20;;;410.30;2355.20;;;;;;5049729;28;20025;-59
2023/10/26 05:56:20;;;;;;;7.07;5.60;;;410.50;2355.20;;;;;;5039845;28;20017;-59
2023/10/26 05:58:49;;;;;;;10.35;5.70;;;435.30;2355.20;;;;;;5046111;28;20101;-60
2023/10/26 06:01:14;;;;;;;11.90;6.45;;;435.20;2355.20;;;;;;5049986;28;20036;-59
2023/10/26 06:03:40;;;;;;;12.18;5.97;;;410.50;2355.20;;;;;;5036563;28;20041;-59
2023/10/26 06:06:06;;;;;;;10.63;5.60;;;435.30;2355.20;;;;;;5030505;28;20077;-60
2023/10/26 06:08:31;;;;;;;8.15;4.05;;;435.30;2355.20;;;;;;5049828;28;20021;-60
2023/10/26 06:10:58;;;;;;;12.20;3.90;;;435.60;2355.20;;;;;;5041378;28;20499;-66
2023/10/26 06:13:24;;;;;;;6.88;3.13;;;435.90;2355.20;;;;;;5038175;28;20040;-71
2023/10/26 06:15:50;;;;;;;5.60;4.43;;;460.80;2380.80;;;;;;5041138;28;20064;-75
2023/10/26 06:18:16;;;;;;;6.13;3.38;;;461.00;2380.80;;;;;;5046352;28;20021;-70
2023/10/26 06:20:42;;;;;;;5.57;3.22;;;461.20;2380.80;;;;;;5046652;28;20163;-69
2023/10/26 06:23:08;;;;;;;7.07;3.47;;;461.20;2380.80;;;;;;5040036;28;20467;-70
2023/10/26 06:25:35;;;;;;;20.83;18.67;;;461.30;2380.80;;;;;;5033295;28;20068;-70
2023/10/26 06:28:00;;;;;;;12.73;3.78;;;461.20;2380.80;;;;;;5041407;28;20036;-71
2023/10/26 06:30:26;;;;;;;21.13;15.38;;;461.20;2380.80;;;;;;5046844;28;20032;-70
2023/10/26 06:32:52;;;;;;;18.35;12.40;;;461.10;2380.80;;;;;;5046208;28;20036;-74
2023/10/26 06:35:18;;;;;;;12.48;8.63;;;460.90;2380.80;;;;;;5040146;28;20187;-70
2023/10/26 06:37:44;;;;;;;15.68;9.63;;;460.90;2380.80;;;;;;5027458;28;20116;-70
2023/10/26 06:40:10;;;;;;;11.57;7.13;;;460.80;2380.80;;;;;;5038076;28;20028;-70
2023/10/26 06:42:36;;;;;;;14.88;8.70;;;436.00;2355.20;;;;;;5043865;28;20036;-71
2023/10/26 06:45:02;;;;;;;20.83;10.77;;;435.90;2355.20;;;;;;5044008;28;20036;-71
2023/10/26 06:47:29;;;;;;;19.05;10.15;;;435.90;2355.20;;;;;;5047213;28;20430;-71
2023/10/26 06:49:55;;;;;;;19.30;11.43;;;435.80;2355.20;;;;;;5047598;28;20024;-70
2023/10/26 06:52:21;;;;;;;15.40;9.38;;;435.70;2355.20;;;;;;5047422;28;20036;-70
2023/10/26 06:54:50;;;;;;;156.25;139.52;;;435.90;2355.20;;;;;;5047305;28;20029;-71
2023/10/26 06:57:16;;;;;;;33.58;19.52;;;436.00;2355.20;;;;;;5047353;28;20375;-70
2023/10/26 06:59:42;;;;;;;27.30;13.27;;;435.90;2355.20;;;;;;5015045;28;20035;-70
2023/10/26 07:02:08;;;;;;;29.05;19.85;;;436.10;2355.20;;;;;;5040067;28;20040;-70
2023/10/26 07:04:35;;;;;;;28.25;22.02;;;436.10;2355.20;;;;;;5042918;28;20037;-70
2023/10/26 07:07:01;;;;;;;20.05;12.23;;;436.10;2355.20;;;;;;5035602;28;20021;-70
2023/10/26 07:09:27;;;;;;;18.77;11.75;;;460.80;2380.80;;;;;;5031080;28;20217;-71
2023/10/26 07:11:52;;;;;;;20.02;13.25;;;460.80;2380.80;;;;;;5045366;28;20104;-71
2023/10/26 07:14:18;;;;;;;17.48;13.80;;;461.00;2380.80;;;;;;5036855;28;20033;-71
2023/10/26 07:16:44;;;;;;;15.98;12.77;;;460.90;2380.80;;;;;;5031740;28;20080;-72
2023/10/26 07:19:10;;;;;;;18.02;11.02;;;460.90;2380.80;;;;;;5046739;28;20068;-70
2023/10/26 07:21:36;;;;;;;21.75;10.93;;;460.80;2380.80;;;;;;5032733;28;20104;-69
2023/10/26 07:24:02;;;;;;;127.70;90.22;;;460.80;2380.80;;;;;;5036849;28;20041;-70
2023/10/26 07:26:28;;;;;;;80.97;51.78;;;460.90;2380.80;;;;;;5026446;28;20029;-70
2023/10/26 07:28:56;;;;;;;43.83;31.00;;;461.00;2380.80;;;;;;5034988;28;20029;-71
2023/10/26 07:31:22;;;;;;;44.45;24.25;;;461.20;2380.80;;;;;;5031635;28;20029;-72
2023/10/26 07:33:48;;;;;;;25.75;17.55;;;461.40;2380.80;;;;;;5027841;28;20083;-70
2023/10/26 07:36:15;;;;;;;31.35;21.60;;;461.50;2380.80;;;;;;5034247;28;20037;-70
2023/10/26 07:38:41;;;;;;;27.48;17.58;;;461.70;2380.80;;;;;;5039683;28;20028;-71
2023/10/26 07:41:08;;;;;;;26.52;14.13;;;486.40;2380.80;;;;;;5044493;28;20357;-71
2023/10/26 07:43:36;;;;;;;28.15;15.50;;;486.50;2380.80;;;;;;5031093;28;20040;-70
2023/10/26 07:46:03;;;;;;;16.13;9.35;;;486.50;2380.80;;;;;;5025426;28;20100;-71
2023/10/26 07:48:29;;;;;;;24.63;11.63;;;486.50;2380.80;;;;;;5035030;28;20028;-70
2023/10/26 07:50:57;;;;;;;34.20;17.48;;;486.60;2380.80;;;;;;5043337;28;20053;-71
2023/10/26 07:53:23;;;;;;;31.15;17.05;;;486.70;2380.80;;;;;;5037551;28;20484;-70
2023/10/26 07:55:50;;;;;;;29.38;18.27;;;486.50;2380.80;;;;;;5041166;28;20026;-70
2023/10/26 07:58:16;;;;;;;31.15;14.07;;;486.40;2380.80;;;;;;5031155;28;20026;-73
2023/10/26 08:00:42;;;;;;;58.28;40.30;;;486.60;2380.80;;;;;;5030823;28;20091;-72
2023/10/26 08:03:09;;;;;;;39.00;23.20;;;486.70;2380.80;;;;;;5034305;28;20080;-70
2023/10/26 08:05:35;;;;;;;50.88;31.30;;;486.70;2380.80;;;;;;5050294;28;20052;-71
2023/10/26 08:08:01;;;;;;;29.67;17.33;;;486.80;2380.80;;;;;;5033265;28;20041;-72
2023/10/26 08:10:27;;;;;;;31.35;20.25;;;486.90;2380.80;;;;;;5030884;28;20029;-71
2023/10/26 08:12:53;;;;;;;49.10;33.20;;;487.20;2380.80;;;;;;5032172;28;20020;-71
2023/10/26 08:15:20;;;;;;;37.80;25.63;;;487.10;2380.80;;;;;;5031846;28;20025;-70
2023/10/26 08:17:46;;;;;;;58.30;41.13;;;487.00;2380.80;;;;;;5026101;28;20160;-71
2023/10/26 08:20:12;;;;;;;50.50;34.85;;;487.00;2380.80;;;;;;5034641;28;20060;-71
2023/10/26 08:22:38;;;;;;;29.13;16.83;;;487.00;2380.80;;;;;;5041866;28;20127;-71
2023/10/26 08:25:05;;;;;;;32.88;19.88;;;486.80;2380.80;;;;;;5041512;28;20071;-71
2023/10/26 08:27:35;;;;;;;19.48;9.75;;;487.00;2380.80;;;;;;5050189;28;20100;-72
2023/10/26 08:30:02;;;;;;;41.72;32.38;;;487.10;2380.80;;;;;;5049761;28;20029;-72
2023/10/26 08:32:29;;;;;;;11.63;7.15;;;487.30;2380.80;;;;;;5049453;28;20021;-72
2023/10/26 08:34:54;;;;;;;16.20;7.18;;;487.30;2380.80;;;;;;5050060;28;20104;-71
2023/10/26 08:37:20;;;;;;;19.60;8.55;;;512.10;2380.80;;;;;;5049930;28;20174;-70
2023/10/26 08:39:46;;;;;;;10.90;6.80;;;512.30;2380.80;;;;;;5049883;28;20033;-72
2023/10/26 08:42:11;;;;;;;14.48;6.65;;;512.30;2380.80;;;;;;5049814;28;20036;-72
2023/10/26 08:44:39;;;;;;;12.30;5.85;;;512.60;2380.80;;;;;;5049614;28;20098;-72
2023/10/26 08:47:06;;;;;;;14.82;5.80;;;512.80;2380.80;;;;;;5048788;28;20601;-72
2023/10/26 08:49:32;;;;;;;22.80;16.52;;;512.90;2380.80;;;;;;5028972;28;20151;-72
2023/10/26 08:51:59;;;;;;;14.68;9.35;;;537.60;2406.40;;;;;;5043283;28;20029;-72
2023/10/26 08:54:28;;;;;;;14.18;6.05;;;538.00;2406.40;;;;;;5048280;28;20060;-71
2023/10/26 08:56:54;;;;;;;19.70;12.25;;;538.10;2380.80;;;;;;5049163;28;20021;-71
2023/10/26 08:59:23;;;;;;;15.90;11.10;;;538.20;2406.40;;;;;;5049324;28;20029;-71
2023/10/26 09:01:49;;;;;;;14.13;8.80;;;538.20;2406.40;;;;;;5049384;28;20028;-71
2023/10/26 09:04:15;;;;;;;12.30;7.30;;;538.50;2355.20;;;;;;5049184;28;20053;-71
2023/10/26 09:06:48;;;;;;;36.92;8.73;;;563.30;2329.60;;;;;;5047064;28;20506;-72
2023/10/26 09:09:15;;;;;;;8.13;5.13;;;563.40;2329.60;;;;;;5042919;28;20036;-73
2023/10/26 09:11:42;;;;;;;11.45;5.05;;;563.40;2278.40;;;;;;5036634;28;20029;-70
2023/10/26 09:14:21;;;;;;;20.55;16.25;;;563.40;2304.00;;;;;;5042252;28;20052;-72
2023/10/26 09:16:49;;;;;;;11.65;6.70;;;563.50;2278.40;;;;;;5017720;28;20029;-72
2023/10/26 09:19:17;;;;;;;7.70;4.55;;;563.50;2329.60;;;;;;5042388;28;20128;-71
2023/10/26 09:21:56;;;;;;;10.77;6.97;;;563.50;2278.40;;;;;;5020015;28;20072;-71
2023/10/26 09:24:29;;;;;;;20.63;13.15;;;563.60;2329.60;;;;;;5042264;28;20045;-71
2023/10/26 09:27:00;;;;;;;13.35;9.27;;;563.80;2355.20;;;;;;5047331;28;20021;-71
2023/10/26 09:29:36;;;;;;;20.23;10.80;;;563.90;2278.40;;;;;;5045875;28;20048;-71
2023/10/26 09:32:02;;;;;;;17.05;10.05;;;563.80;2380.80;;;;;;5047204;28;20036;-72
2023/10/26 09:34:28;;;;;;;20.17;11.32;;;564.10;2304.00;;;;;;5048080;28;20048;-73
2023/10/26 09:37:05;;;;;;;24.80;16.15;;;588.90;2406.40;;;;;;5046602;28;20020;-73
2023/10/26 09:39:33;;;;;;;33.97;12.93;;;589.10;2355.20;;;;;;5049726;28;20025;-73
2023/10/26 09:42:00;;;;;;;23.80;12.73;;;589.20;2252.80;;;;;;5049715;28;20645;-71
2023/10/26 09:44:27;;;;;;;25.70;15.77;;;588.80;2278.40;;;;;;5046236;28;20033;-71
2023/10/26 09:46:53;;;;;;;23.48;16.38;;;564.10;2304.00;;;;;;5047813;28;20025;-71
2023/10/26 09:49:21;;;;;;;23.42;11.50;;;589.00;2252.80;;;;;;5045386;28;20025;-71
2023/10/26 09:51:46;;;;;;;25.83;13.48;;;589.00;2252.80;;;;;;5041931;28;20088;-71
2023/10/26 09:54:13;;;;;;;14.95;8.70;;;589.00;2304.00;;;;;;5041623;28;20025;-70
2023/10/26 09:56:48;;;;;;;18.90;9.18;;;589.00;2201.60;;;;;;5045396;28;20013;-71
2023/10/26 09:59:14;;;;;;;15.10;8.48;;;588.80;2227.20;;;;;;5046181;28;20052;-71
2023/10/26 10:01:40;;;;;;;16.35;9.00;;;564.10;2227.20;;;;;;5044578;28;20075;-71
2023/10/26 10:04:08;;;;;;;15.73;10.32;;;564.10;2227.20;;;;;;5045566;28;20128;-71
2023/10/26 10:06:54;;;;;;;16.33;8.88;;;564.00;2201.60;;;;;;5047904;28;20566;-73
2023/10/26 10:09:24;;;;;;;13.90;7.88;;;563.80;2201.60;;;;;;5025340;28;20033;-70
2023/10/26 10:12:05;;;;;;;20.27;9.88;;;563.80;2252.80;;;;;;5047823;28;20033;-71
2023/10/26 10:14:51;;;;;;;16.85;11.10;;;563.70;2355.20;;;;;;5047559;28;20077;-72
2023/10/26 10:17:19;;;;;;;13.23;8.80;;;563.60;2304.00;;;;;;5016057;28;20037;-71
2023/10/26 10:20:27;;;;;;;10.82;5.30;;;563.50;2278.40;;;;;;5042273;28;20045;-71
2023/10/26 10:22:55;;;;;;;12.00;6.25;;;563.40;2176.00;;;;;;5029863;28;20034;-70
2023/10/26 10:25:23;;;;;;;6.22;4.05;;;563.40;2201.60;;;;;;5039898;28;20493;-70
2023/10/26 10:27:48;;;;;;;9.73;5.57;;;563.40;2201.60;;;;;;5046356;28;20060;-70
2023/10/26 10:30:19;;;;;;;8.32;4.63;;;563.40;2176.00;;;;;;5042216;28;20060;-72
2023/10/26 10:32:45;;;;;;;16.02;12.15;;;563.40;2176.00;;;;;;5044185;28;20032;-71
2023/10/26 10:35:30;;;;;;;17.13;14.65;;;563.50;2176.00;;;;;;5042032;28;20029;-71
2023/10/26 10:38:12;;;;;;;20.67;12.25;;;563.60;2150.40;;;;;;5045699;28;20063;-72
2023/10/26 10:40:39;;;;;;;10.52;9.05;;;563.80;2150.40;;;;;;5040413;28;20033;-72
2023/10/26 10:43:05;;;;;;;19.60;9.48;;;564.10;2176.00;;;;;;5032360;28;20021;-72
2023/10/26 10:45:31;;;;;;;13.88;6.07;;;564.10;2176.00;;;;;;5037696;28;20371;-72
2023/10/26 10:47:57;;;;;;;10.80;6.72;;;588.80;2099.20;;;;;;5034815;28;20029;-72
2023/10/26 10:50:25;;;;;;;16.05;9.80;;;588.90;2124.80;;;;;;5040585;28;20048;-72
2023/10/26 10:52:55;;;;;;;17.83;8.85;;;589.00;2227.20;;;;;;5035805;28;20057;-73
2023/10/26 10:55:29;;;;;;;18.33;9.55;;;589.10;2150.40;;;;;;5030467;28;20025;-71
2023/10/26 10:58:02;;;;;;;12.55;6.95;;;589.20;2252.80;;;;;;5042012;28;20463;-72
2023/10/26 11:00:43;;;;;;;9.40;6.97;;;589.20;2227.20;;;;;;5030413;28;20120;-73
2023/10/26 11:03:08;;;;;;;10.07;6.30;;;589.20;2252.80;;;;;;5032779;28;20022;-75
2023/10/26 11:05:39;;;;;;;7.10;5.10;;;589.20;2252.80;;;;;;5038380;28;20048;-72
2023/10/26 11:08:06;;;;;;;6.05;4.47;;;589.00;2252.80;;;;;;5046553;28;20048;-73
2023/10/26 11:10:36;;;;;;;5.50;3.58;;;589.00;2176.00;;;;;;5045775;28;20028;-73
2023/10/26 11:13:02;;;;;;;7.05;5.20;;;589.10;2073.60;;;;;;5037125;28;20467;-74
2023/10/26 11:15:37;;;;;;;8.05;5.55;;;589.30;2099.20;;;;;;5022226;28;20112;-73
2023/10/26 11:18:06;;;;;;;11.32;5.38;;;589.50;2099.20;;;;;;5037676;28;20017;-73
2023/10/26 11:20:43;;;;;;;6.70;5.10;;;589.50;2073.60;;;;;;5046080;28;20068;-74
2023/10/26 11:23:11;;;;;;;7.57;4.57;;;589.40;2099.20;;;;;;5022852;28;20545;-72
2023/10/26 11:25:37;;;;;;;16.17;10.32;;;589.30;2099.20;;;;;;5031578;28;20111;-72
2023/10/26 11:28:03;;;;;;;25.65;15.98;;;589.10;2176.00;;;;;;5030970;28;20126;-74
2023/10/26 11:30:30;;;;;;;22.95;13.25;;;588.90;2227.20;;;;;;5046860;28;20027;-74
2023/10/26 11:32:56;;;;;;;26.25;17.52;;;564.10;2227.20;;;;;;5046723;28;20029;-73
2023/10/26 11:35:23;;;;;;;21.85;12.13;;;589.00;2227.20;;;;;;5044942;28;20029;-73
2023/10/26 11:37:54;;;;;;;21.83;11.15;;;589.00;2252.80;;;;;;5045359;28;20383;-73
2023/10/26 11:40:29;;;;;;;26.70;11.15;;;589.00;2252.80;;;;;;5039344;28;20026;-73
2023/10/26 11:42:59;;;;;;;34.00;14.95;;;589.00;2252.80;;;;;;5027290;28;20119;-73
2023/10/26 11:45:26;;;;;;;31.77;16.33;;;589.00;2278.40;;;;;;5021695;28;20044;-73
2023/10/26 11:47:59;;;;;;;32.30;12.48;;;589.00;2304.00;;;;;;5025598;28;20068;-72
2023/10/26 11:50:36;;;;;;;29.67;15.43;;;589.10;2304.00;;;;;;5026456;28;20041;-73
2023/10/26 11:53:04;;;;;;;32.55;15.73;;;589.20;2329.60;;;;;;5018388;28;20026;-74
2023/10/26 11:55:32;;;;;;;18.50;10.98;;;589.10;2278.40;;;;;;5016709;28;20075;-73
2023/10/26 11:58:02;;;;;;;23.83;12.90;;;589.40;2278.40;;;;;;5017993;28;20022;-74
2023/10/26 12:00:29;;;;;;;22.98;11.95;;;589.50;2252.80;;;;;;5012707;28;20026;-75
2023/10/26 12:02:57;;;;;;;31.58;14.23;;;589.40;2278.40;;;;;;5016119;28;20022;-73
2023/10/26 12:05:23;;;;;;;35.92;14.85;;;589.70;2252.80;;;;;;5016093;28;20033;-73
2023/10/26 12:07:49;;;;;;;46.08;19.70;;;589.70;2227.20;;;;;;5016910;28;20131;-74